Time;durP1;ratioP1;P1;durP2;ratioP2;P2;SDS_P1;SDS_P2;PMS_P1;PMS_P2;Temp;Humidity;BMP_temperature;BMP_pressure;BME280_temperature;BME280_humidity;BME280_pressure;Samples;Min_cycle;Max_cycle;Signal;HPM_P1;HPM_P2
2021/12/24 16:43:31;;;;;;;0.68;0.65;;;7.60;92.60;;;;;;5153260;27;20552;-89
2021/12/24 16:46:03;;;;;;;0.88;0.70;;;7.60;93.20;;;;;;5030692;28;20132;-89
2021/12/24 16:48:36;;;;;;;0.93;0.80;;;7.50;93.60;;;;;;4990502;28;20121;-89
2021/12/24 16:51:26;;;;;;;0.98;0.80;;;7.50;94.30;;;;;;4993149;28;20041;-89
2021/12/24 16:53:53;;;;;;;0.98;0.50;;;7.50;94.70;;;;;;4995212;28;20078;-89
2021/12/24 16:56:20;;;;;;;0.95;0.65;;;7.60;95.10;;;;;;4993118;28;20065;-88
2021/12/24 16:58:46;;;;;;;1.77;0.90;;;7.60;95.50;;;;;;4992059;28;20049;-89
2021/12/24 17:01:14;;;;;;;0.93;0.70;;;7.60;95.70;;;;;;4991764;28;20042;-90
2021/12/24 17:03:43;;;;;;;0.77;0.70;;;7.70;95.90;;;;;;4991415;28;20050;-89
2021/12/24 17:06:09;;;;;;;0.68;0.55;;;7.70;96.40;;;;;;4991571;28;20053;-90
2021/12/24 17:08:41;;;;;;;0.88;0.65;;;7.70;96.30;;;;;;4991440;28;20360;-89
2021/12/24 17:19:22;;;;;;;1.70;0.88;;;7.80;96.60;;;;;;4950736;28;20043;-91
2021/12/24 17:22:58;;;;;;;0.60;0.50;;;7.80;96.60;;;;;;4931800;29;20106;-90
2021/12/24 17:26:07;;;;;;;1.20;0.85;;;7.80;96.60;;;;;;4908386;29;20052;-90
2021/12/24 17:29:00;;;;;;;2.58;1.40;;;7.80;96.70;;;;;;4843385;29;20059;-89
2021/12/24 17:31:46;;;;;;;1.48;0.90;;;7.80;96.70;;;;;;4829721;29;20133;-89
2021/12/24 17:34:23;;;;;;;1.33;0.90;;;7.70;96.70;;;;;;4800042;29;20402;-89
2021/12/24 17:36:52;;;;;;;1.77;0.70;;;7.80;96.70;;;;;;4785712;29;20063;-89
2021/12/24 17:39:48;;;;;;;0.90;0.60;;;7.80;96.70;;;;;;4784726;29;20184;-89
2021/12/24 17:42:24;;;;;;;1.63;0.93;;;7.80;96.70;;;;;;4795239;29;20064;-89
2021/12/24 17:44:50;;;;;;;3.55;1.67;;;7.70;96.70;;;;;;4794852;29;20058;-88
2021/12/24 17:47:19;;;;;;;1.92;1.10;;;7.70;96.70;;;;;;4842588;29;20131;-89
2021/12/24 17:49:47;;;;;;;1.52;1.05;;;7.70;96.70;;;;;;4867122;29;20040;-88
2021/12/24 17:52:13;;;;;;;3.75;1.52;;;7.70;96.70;;;;;;4879043;29;20059;-88
2021/12/24 17:54:39;;;;;;;3.30;2.00;;;7.70;96.70;;;;;;4872052;29;20166;-88
2021/12/24 17:57:09;;;;;;;2.55;1.65;;;7.80;96.70;;;;;;4919971;29;20244;-89
2021/12/24 17:59:54;;;;;;;3.22;2.10;;;7.90;96.70;;;;;;4946581;28;20105;-90
2021/12/24 18:48:13;;;;;;;1.45;0.77;;;7.20;96.50;;;;;;4680747;30;20093;-91
2021/12/24 18:50:47;;;;;;;0.50;0.40;;;7.20;96.50;;;;;;4681938;30;20164;-91
2021/12/24 18:53:31;;;;;;;1.10;0.80;;;7.20;96.50;;;;;;4699168;30;20524;-90
2021/12/24 18:56:05;;;;;;;2.30;1.20;;;7.20;96.50;;;;;;4692730;30;20619;-90
2021/12/24 18:58:37;;;;;;;2.22;1.40;;;7.20;96.50;;;;;;4730510;30;20267;-90
2021/12/24 19:01:07;;;;;;;1.23;1.05;;;7.10;96.50;;;;;;4729885;30;20060;-90
2021/12/24 19:03:36;;;;;;;2.72;1.67;;;7.20;96.50;;;;;;4715744;30;20048;-88
2021/12/24 19:06:02;;;;;;;3.05;1.60;;;7.30;96.50;;;;;;4700191;30;20045;-90
2021/12/24 19:08:30;;;;;;;2.67;1.40;;;7.10;96.40;;;;;;4708953;30;20678;-90
2021/12/24 19:10:56;;;;;;;2.90;1.60;;;7.10;96.40;;;;;;4712463;30;20128;-90
2021/12/24 19:13:25;;;;;;;2.50;1.30;;;7.20;96.50;;;;;;4664433;30;20129;-90
2021/12/24 19:15:53;;;;;;;3.28;1.60;;;7.10;96.50;;;;;;4658171;30;20050;-89
2021/12/24 19:18:20;;;;;;;3.85;1.80;;;7.00;96.40;;;;;;4697618;30;20061;-90
2021/12/24 19:20:53;;;;;;;1.85;1.15;;;7.00;96.40;;;;;;4727469;30;20056;-90
2021/12/24 19:23:20;;;;;;;2.17;1.38;;;7.00;96.40;;;;;;4738859;30;20127;-89
2021/12/24 19:25:45;;;;;;;2.85;1.50;;;7.00;96.40;;;;;;4770971;29;20134;-89
2021/12/24 19:28:14;;;;;;;3.53;1.60;;;7.10;96.40;;;;;;4817237;29;20643;-87
2021/12/24 19:30:40;;;;;;;2.60;1.42;;;7.20;96.40;;;;;;4828972;29;20045;-87
2021/12/24 19:33:06;;;;;;;1.63;1.00;;;7.00;96.40;;;;;;4878121;29;20045;-86
2021/12/24 19:35:32;;;;;;;1.58;0.90;;;7.00;96.40;;;;;;4900830;29;20043;-86
2021/12/24 19:37:58;;;;;;;1.65;0.85;;;7.00;96.40;;;;;;4948568;28;20039;-88
2021/12/24 19:40:29;;;;;;;2.70;1.40;;;7.00;96.40;;;;;;4972546;28;20393;-87
2021/12/24 19:42:57;;;;;;;2.35;1.30;;;6.90;96.30;;;;;;4991811;28;20200;-88
2021/12/24 19:45:23;;;;;;;1.63;1.00;;;6.90;96.40;;;;;;5000967;28;20056;-87
2021/12/24 19:47:49;;;;;;;1.98;1.10;;;6.90;96.40;;;;;;5018805;28;20040;-87
2021/12/24 19:50:15;;;;;;;2.22;1.50;;;7.00;96.40;;;;;;5018987;28;20047;-87
2021/12/24 19:52:42;;;;;;;1.63;0.90;;;7.00;96.40;;;;;;5096189;28;20039;-88
2021/12/24 19:55:11;;;;;;;1.30;0.88;;;6.90;96.70;;;;;;5114025;28;20039;-87
2021/12/24 19:57:37;;;;;;;2.33;1.30;;;6.90;96.40;;;;;;5062491;28;20492;-88
2021/12/24 20:00:07;;;;;;;1.38;0.80;;;7.00;96.40;;;;;;5080449;28;20084;-87
2021/12/24 20:02:33;;;;;;;1.92;1.38;;;7.00;96.40;;;;;;5062399;28;20043;-87
2021/12/24 20:04:59;;;;;;;1.48;1.00;;;6.90;96.30;;;;;;5061979;28;20039;-87
2021/12/24 20:07:25;;;;;;;0.95;0.73;;;6.90;96.30;;;;;;5095865;28;20083;-88
2021/12/24 20:09:50;;;;;;;1.55;1.00;;;6.90;96.30;;;;;;5061425;28;20039;-87
2021/12/24 20:12:16;;;;;;;2.63;1.20;;;6.90;96.30;;;;;;5062043;28;20055;-88
2021/12/24 20:14:42;;;;;;;1.70;1.05;;;6.80;96.30;;;;;;5061784;28;20032;-87
2021/12/24 20:17:07;;;;;;;2.35;1.30;;;6.90;96.30;;;;;;5061739;28;20039;-86
2021/12/24 20:19:34;;;;;;;1.63;0.90;;;6.80;96.30;;;;;;5059464;28;20050;-87
2021/12/24 20:21:59;;;;;;;2.53;1.20;;;6.80;96.30;;;;;;5078252;28;20031;-87
2021/12/24 20:24:25;;;;;;;2.45;1.00;;;6.80;96.30;;;;;;5078162;28;20058;-87
2021/12/24 20:26:52;;;;;;;2.40;1.10;;;6.80;96.30;;;;;;5078688;28;20119;-87
2021/12/24 20:29:18;;;;;;;1.80;1.00;;;6.80;96.30;;;;;;5078619;28;20122;-87
2021/12/24 20:31:45;;;;;;;1.50;0.95;;;6.90;96.30;;;;;;5061704;28;20093;-87
2021/12/24 20:34:11;;;;;;;1.98;1.00;;;6.90;96.30;;;;;;5078188;28;20115;-88
2021/12/24 22:44:04;;;;;;;3.10;1.20;;;6.30;96.00;;;;;;5958741;24;20457;-87
2021/12/24 22:47:37;;;;;;;2.28;1.30;;;6.30;96.00;;;;;;5823083;24;20152;-85
2021/12/24 23:45:54;;;;;;;4.10;1.60;;;5.20;95.90;;;;;;5761398;24;20038;-88
